sensor_id;sensor_type;location;lat;lon;timestamp;P1;durP1;ratioP1;P2;durP2;ratioP2
3573;SDS011;1801;51.050;6.246;2022-09-01T00:01:13;6.10;;;2.23;;
3573;SDS011;1801;51.050;6.246;2022-09-01T00:03:44;4.30;;;1.90;;
3573;SDS011;1801;51.050;6.246;2022-09-01T00:06:12;4.23;;;2.20;;
3573;SDS011;1801;51.050;6.246;2022-09-01T00:08:37;3.07;;;2.03;;
3573;SDS011;1801;51.050;6.246;2022-09-01T00:11:03;4.33;;;1.90;;
3573;SDS011;1801;51.050;6.246;2022-09-01T00:13:28;4.57;;;1.83;;
3573;SDS011;1801;51.050;6.246;2022-09-01T00:15:57;4.53;;;1.60;;
3573;SDS011;1801;51.050;6.246;2022-09-01T00:18:23;4.20;;;2.07;;
3573;SDS011;1801;51.050;6.246;2022-09-01T00:20:48;4.40;;;1.80;;
3573;SDS011;1801;51.050;6.246;2022-09-01T00:23:13;2.83;;;1.67;;
3573;SDS011;1801;51.050;6.246;2022-09-01T00:25:38;2.30;;;1.80;;
3573;SDS011;1801;51.050;6.246;2022-09-01T00:28:04;3.73;;;2.10;;
3573;SDS011;1801;51.050;6.246;2022-09-01T00:30:29;5.70;;;1.93;;
3573;SDS011;1801;51.050;6.246;2022-09-01T00:32:54;3.40;;;1.87;;
3573;SDS011;1801;51.050;6.246;2022-09-01T00:35:19;2.33;;;1.90;;
3573;SDS011;1801;51.050;6.246;2022-09-01T00:37:45;6.50;;;2.40;;
3573;SDS011;1801;51.050;6.246;2022-09-01T00:40:11;4.63;;;1.60;;
3573;SDS011;1801;51.050;6.246;2022-09-01T00:42:37;2.80;;;1.97;;
3573;SDS011;1801;51.050;6.246;2022-09-01T00:45:04;3.37;;;2.50;;
3573;SDS011;1801;51.050;6.246;2022-09-01T00:47:29;4.60;;;2.07;;
3573;SDS011;1801;51.050;6.246;2022-09-01T00:49:54;3.53;;;2.20;;
3573;SDS011;1801;51.050;6.246;2022-09-01T00:54:52;2.90;;;1.87;;
3573;SDS011;1801;51.050;6.246;2022-09-01T00:57:18;6.83;;;1.90;;
3573;SDS011;1801;51.050;6.246;2022-09-01T01:00:00;9.03;;;2.70;;
3573;SDS011;1801;51.050;6.246;2022-09-01T01:02:26;8.07;;;2.50;;
3573;SDS011;1801;51.050;6.246;2022-09-01T01:04:51;6.50;;;2.70;;
3573;SDS011;1801;51.050;6.246;2022-09-01T01:07:17;4.40;;;2.37;;
3573;SDS011;1801;51.050;6.246;2022-09-01T01:09:44;3.17;;;2.20;;
3573;SDS011;1801;51.050;6.246;2022-09-01T01:12:10;3.37;;;2.00;;
3573;SDS011;1801;51.050;6.246;2022-09-01T01:14:42;4.30;;;2.40;;
3573;SDS011;1801;51.050;6.246;2022-09-01T01:17:08;4.07;;;2.20;;
3573;SDS011;1801;51.050;6.246;2022-09-01T01:22:43;2.60;;;2.13;;
3573;SDS011;1801;51.050;6.246;2022-09-01T01:25:24;4.17;;;1.90;;
3573;SDS011;1801;51.050;6.246;2022-09-01T01:27:49;8.43;;;2.43;;
3573;SDS011;1801;51.050;6.246;2022-09-01T01:30:16;4.63;;;3.00;;
3573;SDS011;1801;51.050;6.246;2022-09-01T01:32:43;3.93;;;2.60;;
3573;SDS011;1801;51.050;6.246;2022-09-01T01:35:12;9.07;;;2.77;;
3573;SDS011;1801;51.050;6.246;2022-09-01T01:37:38;4.57;;;2.80;;
3573;SDS011;1801;51.050;6.246;2022-09-01T01:40:04;5.37;;;2.73;;
3573;SDS011;1801;51.050;6.246;2022-09-01T01:42:31;4.27;;;2.60;;
3573;SDS011;1801;51.050;6.246;2022-09-01T01:44:56;4.50;;;2.70;;
3573;SDS011;1801;51.050;6.246;2022-09-01T01:47:22;5.27;;;2.10;;
3573;SDS011;1801;51.050;6.246;2022-09-01T01:49:47;3.43;;;2.50;;
3573;SDS011;1801;51.050;6.246;2022-09-01T01:52:12;3.23;;;2.40;;
3573;SDS011;1801;51.050;6.246;2022-09-01T01:54:42;2.90;;;2.60;;
3573;SDS011;1801;51.050;6.246;2022-09-01T01:57:07;7.13;;;2.80;;
3573;SDS011;1801;51.050;6.246;2022-09-01T01:59:33;3.70;;;2.93;;
3573;SDS011;1801;51.050;6.246;2022-09-01T02:01:58;4.93;;;2.87;;
3573;SDS011;1801;51.050;6.246;2022-09-01T02:04:27;4.50;;;3.00;;
3573;SDS011;1801;51.050;6.246;2022-09-01T02:06:55;5.70;;;3.00;;
3573;SDS011;1801;51.050;6.246;2022-09-01T02:09:20;3.30;;;2.70;;
3573;SDS011;1801;51.050;6.246;2022-09-01T02:11:47;5.23;;;2.97;;
3573;SDS011;1801;51.050;6.246;2022-09-01T02:14:15;4.10;;;2.13;;
3573;SDS011;1801;51.050;6.246;2022-09-01T02:16:44;5.50;;;2.77;;
3573;SDS011;1801;51.050;6.246;2022-09-01T02:19:09;6.23;;;2.80;;
3573;SDS011;1801;51.050;6.246;2022-09-01T02:21:36;10.37;;;3.10;;
3573;SDS011;1801;51.050;6.246;2022-09-01T02:24:02;6.30;;;2.80;;
3573;SDS011;1801;51.050;6.246;2022-09-01T02:26:31;4.07;;;2.57;;
3573;SDS011;1801;51.050;6.246;2022-09-01T02:29:00;4.10;;;2.80;;
3573;SDS011;1801;51.050;6.246;2022-09-01T02:31:29;6.57;;;2.73;;
3573;SDS011;1801;51.050;6.246;2022-09-01T02:33:55;5.53;;;2.83;;
3573;SDS011;1801;51.050;6.246;2022-09-01T02:36:21;6.23;;;3.30;;
3573;SDS011;1801;51.050;6.246;2022-09-01T02:38:46;7.10;;;4.27;;
3573;SDS011;1801;51.050;6.246;2022-09-01T02:41:13;7.50;;;3.50;;
3573;SDS011;1801;51.050;6.246;2022-09-01T02:43:39;4.90;;;3.57;;
3573;SDS011;1801;51.050;6.246;2022-09-01T02:46:07;7.33;;;3.70;;
3573;SDS011;1801;51.050;6.246;2022-09-01T02:48:34;10.53;;;3.30;;
3573;SDS011;1801;51.050;6.246;2022-09-01T02:51:00;7.40;;;3.70;;
3573;SDS011;1801;51.050;6.246;2022-09-01T02:53:26;5.97;;;3.70;;
3573;SDS011;1801;51.050;6.246;2022-09-01T02:55:52;7.90;;;3.60;;
3573;SDS011;1801;51.050;6.246;2022-09-01T02:58:17;5.93;;;3.83;;
3573;SDS011;1801;51.050;6.246;2022-09-01T03:00:44;12.60;;;4.10;;
3573;SDS011;1801;51.050;6.246;2022-09-01T03:03:09;10.23;;;3.77;;
3573;SDS011;1801;51.050;6.246;2022-09-01T03:05:41;10.03;;;3.77;;
3573;SDS011;1801;51.050;6.246;2022-09-01T03:08:07;8.63;;;4.00;;
3573;SDS011;1801;51.050;6.246;2022-09-01T03:10:35;3.53;;;3.00;;
3573;SDS011;1801;51.050;6.246;2022-09-01T03:13:02;5.73;;;3.60;;
3573;SDS011;1801;51.050;6.246;2022-09-01T03:15:28;11.50;;;3.67;;
3573;SDS011;1801;51.050;6.246;2022-09-01T03:17:53;6.00;;;3.20;;
3573;SDS011;1801;51.050;6.246;2022-09-01T03:20:18;4.83;;;3.50;;
3573;SDS011;1801;51.050;6.246;2022-09-01T03:22:46;13.27;;;4.10;;
3573;SDS011;1801;51.050;6.246;2022-09-01T03:25:11;8.93;;;3.97;;
3573;SDS011;1801;51.050;6.246;2022-09-01T03:27:37;11.53;;;6.13;;
3573;SDS011;1801;51.050;6.246;2022-09-01T03:30:02;7.63;;;3.93;;
3573;SDS011;1801;51.050;6.246;2022-09-01T03:32:27;11.23;;;4.03;;
3573;SDS011;1801;51.050;6.246;2022-09-01T03:34:53;11.20;;;4.60;;
3573;SDS011;1801;51.050;6.246;2022-09-01T03:37:18;12.60;;;4.70;;
3573;SDS011;1801;51.050;6.246;2022-09-01T03:39:44;6.90;;;4.30;;
3573;SDS011;1801;51.050;6.246;2022-09-01T03:42:10;6.80;;;4.20;;
3573;SDS011;1801;51.050;6.246;2022-09-01T03:44:36;7.90;;;4.13;;
3573;SDS011;1801;51.050;6.246;2022-09-01T03:47:04;13.53;;;4.73;;
3573;SDS011;1801;51.050;6.246;2022-09-01T03:49:34;6.40;;;4.07;;
3573;SDS011;1801;51.050;6.246;2022-09-01T03:52:00;11.77;;;5.70;;
3573;SDS011;1801;51.050;6.246;2022-09-01T03:54:25;10.10;;;4.63;;
3573;SDS011;1801;51.050;6.246;2022-09-01T03:56:53;7.20;;;4.90;;
3573;SDS011;1801;51.050;6.246;2022-09-01T03:59:19;8.77;;;4.37;;
3573;SDS011;1801;51.050;6.246;2022-09-01T04:01:46;10.77;;;5.20;;
3573;SDS011;1801;51.050;6.246;2022-09-01T04:04:12;11.83;;;4.70;;
3573;SDS011;1801;51.050;6.246;2022-09-01T04:06:39;13.00;;;4.97;;
3573;SDS011;1801;51.050;6.246;2022-09-01T04:09:05;12.50;;;5.23;;
3573;SDS011;1801;51.050;6.246;2022-09-01T04:11:30;8.43;;;4.93;;
3573;SDS011;1801;51.050;6.246;2022-09-01T04:13:56;7.90;;;4.80;;
3573;SDS011;1801;51.050;6.246;2022-09-01T04:16:23;14.20;;;5.73;;
3573;SDS011;1801;51.050;6.246;2022-09-01T04:19:07;7.90;;;4.47;;
3573;SDS011;1801;51.050;6.246;2022-09-01T04:21:49;11.43;;;6.40;;
3573;SDS011;1801;51.050;6.246;2022-09-01T04:24:16;11.10;;;4.63;;
3573;SDS011;1801;51.050;6.246;2022-09-01T04:26:42;9.53;;;4.97;;
3573;SDS011;1801;51.050;6.246;2022-09-01T04:29:10;8.37;;;5.40;;
3573;SDS011;1801;51.050;6.246;2022-09-01T04:31:36;9.67;;;5.10;;
3573;SDS011;1801;51.050;6.246;2022-09-01T04:34:03;8.73;;;5.10;;
3573;SDS011;1801;51.050;6.246;2022-09-01T04:36:37;8.63;;;4.20;;
3573;SDS011;1801;51.050;6.246;2022-09-01T04:39:04;16.90;;;6.10;;
3573;SDS011;1801;51.050;6.246;2022-09-01T04:41:32;10.00;;;6.13;;
3573;SDS011;1801;51.050;6.246;2022-09-01T04:43:58;6.90;;;4.50;;
3573;SDS011;1801;51.050;6.246;2022-09-01T04:46:29;10.20;;;4.70;;
3573;SDS011;1801;51.050;6.246;2022-09-01T04:48:56;8.83;;;6.37;;
3573;SDS011;1801;51.050;6.246;2022-09-01T04:51:21;12.17;;;5.03;;
3573;SDS011;1801;51.050;6.246;2022-09-01T04:53:48;9.03;;;5.17;;
3573;SDS011;1801;51.050;6.246;2022-09-01T04:56:14;8.07;;;4.80;;
3573;SDS011;1801;51.050;6.246;2022-09-01T04:58:39;10.33;;;5.80;;
3573;SDS011;1801;51.050;6.246;2022-09-01T05:01:15;11.50;;;5.67;;
3573;SDS011;1801;51.050;6.246;2022-09-01T05:03:40;9.40;;;5.20;;
3573;SDS011;1801;51.050;6.246;2022-09-01T05:06:11;9.37;;;5.77;;
3573;SDS011;1801;51.050;6.246;2022-09-01T05:08:37;12.50;;;6.63;;
3573;SDS011;1801;51.050;6.246;2022-09-01T05:11:04;14.87;;;5.17;;
3573;SDS011;1801;51.050;6.246;2022-09-01T05:13:31;12.40;;;4.67;;
3573;SDS011;1801;51.050;6.246;2022-09-01T05:16:04;12.00;;;5.10;;
3573;SDS011;1801;51.050;6.246;2022-09-01T05:18:30;14.70;;;5.67;;
3573;SDS011;1801;51.050;6.246;2022-09-01T05:20:56;9.77;;;5.40;;
3573;SDS011;1801;51.050;6.246;2022-09-01T05:23:21;8.60;;;4.93;;
3573;SDS011;1801;51.050;6.246;2022-09-01T05:25:48;10.50;;;4.90;;
3573;SDS011;1801;51.050;6.246;2022-09-01T05:28:15;12.07;;;5.40;;
3573;SDS011;1801;51.050;6.246;2022-09-01T05:30:43;13.07;;;5.40;;
3573;SDS011;1801;51.050;6.246;2022-09-01T05:33:09;11.70;;;5.57;;
3573;SDS011;1801;51.050;6.246;2022-09-01T05:35:36;10.30;;;4.83;;
3573;SDS011;1801;51.050;6.246;2022-09-01T05:38:01;16.87;;;6.13;;
3573;SDS011;1801;51.050;6.246;2022-09-01T05:40:27;14.77;;;5.93;;
3573;SDS011;1801;51.050;6.246;2022-09-01T05:42:52;10.50;;;5.63;;
3573;SDS011;1801;51.050;6.246;2022-09-01T05:45:20;14.60;;;5.43;;
3573;SDS011;1801;51.050;6.246;2022-09-01T05:47:47;17.33;;;6.73;;
3573;SDS011;1801;51.050;6.246;2022-09-01T05:50:12;13.00;;;6.07;;
3573;SDS011;1801;51.050;6.246;2022-09-01T05:52:40;12.27;;;5.13;;
3573;SDS011;1801;51.050;6.246;2022-09-01T05:55:08;14.70;;;6.20;;
3573;SDS011;1801;51.050;6.246;2022-09-01T05:57:34;17.97;;;6.30;;
3573;SDS011;1801;51.050;6.246;2022-09-01T06:00:00;13.90;;;5.70;;
3573;SDS011;1801;51.050;6.246;2022-09-01T06:02:26;10.47;;;5.07;;
3573;SDS011;1801;51.050;6.246;2022-09-01T06:04:51;8.37;;;5.30;;
3573;SDS011;1801;51.050;6.246;2022-09-01T06:07:21;15.40;;;5.70;;
3573;SDS011;1801;51.050;6.246;2022-09-01T06:09:47;9.13;;;5.47;;
3573;SDS011;1801;51.050;6.246;2022-09-01T06:12:13;13.80;;;5.77;;
3573;SDS011;1801;51.050;6.246;2022-09-01T06:14:43;10.20;;;5.50;;
3573;SDS011;1801;51.050;6.246;2022-09-01T06:17:08;11.00;;;5.50;;
3573;SDS011;1801;51.050;6.246;2022-09-01T06:19:35;12.40;;;5.43;;
3573;SDS011;1801;51.050;6.246;2022-09-01T06:22:00;14.17;;;5.53;;
3573;SDS011;1801;51.050;6.246;2022-09-01T06:24:26;9.03;;;4.70;;
3573;SDS011;1801;51.050;6.246;2022-09-01T06:26:53;9.37;;;4.40;;
3573;SDS011;1801;51.050;6.246;2022-09-01T06:29:18;10.57;;;5.50;;
3573;SDS011;1801;51.050;6.246;2022-09-01T06:31:44;18.63;;;6.93;;
3573;SDS011;1801;51.050;6.246;2022-09-01T06:34:10;14.80;;;4.50;;
3573;SDS011;1801;51.050;6.246;2022-09-01T06:36:42;9.07;;;4.97;;
3573;SDS011;1801;51.050;6.246;2022-09-01T06:39:07;5.80;;;4.10;;
3573;SDS011;1801;51.050;6.246;2022-09-01T06:41:33;12.50;;;4.77;;
3573;SDS011;1801;51.050;6.246;2022-09-01T06:44:01;8.67;;;4.13;;
3573;SDS011;1801;51.050;6.246;2022-09-01T06:46:26;5.03;;;3.87;;
3573;SDS011;1801;51.050;6.246;2022-09-01T06:48:52;9.37;;;4.20;;
3573;SDS011;1801;51.050;6.246;2022-09-01T06:51:19;9.90;;;4.90;;
3573;SDS011;1801;51.050;6.246;2022-09-01T06:53:46;12.27;;;4.53;;
3573;SDS011;1801;51.050;6.246;2022-09-01T06:56:20;9.40;;;3.50;;
3573;SDS011;1801;51.050;6.246;2022-09-01T06:58:46;9.93;;;4.70;;
3573;SDS011;1801;51.050;6.246;2022-09-01T07:01:15;10.17;;;3.60;;
3573;SDS011;1801;51.050;6.246;2022-09-01T07:03:45;10.13;;;3.77;;
3573;SDS011;1801;51.050;6.246;2022-09-01T07:06:11;11.90;;;4.47;;
3573;SDS011;1801;51.050;6.246;2022-09-01T07:08:39;5.80;;;3.40;;
3573;SDS011;1801;51.050;6.246;2022-09-01T07:11:06;8.70;;;3.50;;
3573;SDS011;1801;51.050;6.246;2022-09-01T07:13:31;12.93;;;3.67;;
3573;SDS011;1801;51.050;6.246;2022-09-01T07:15:58;10.63;;;3.33;;
3573;SDS011;1801;51.050;6.246;2022-09-01T07:18:24;10.43;;;3.53;;
3573;SDS011;1801;51.050;6.246;2022-09-01T07:20:50;9.50;;;3.70;;
3573;SDS011;1801;51.050;6.246;2022-09-01T07:23:17;9.23;;;4.80;;
3573;SDS011;1801;51.050;6.246;2022-09-01T07:25:44;6.37;;;3.63;;
3573;SDS011;1801;51.050;6.246;2022-09-01T07:28:11;8.20;;;3.53;;
3573;SDS011;1801;51.050;6.246;2022-09-01T07:30:44;8.87;;;3.60;;
3573;SDS011;1801;51.050;6.246;2022-09-01T07:33:12;10.27;;;3.80;;
3573;SDS011;1801;51.050;6.246;2022-09-01T07:35:38;8.60;;;3.70;;
3573;SDS011;1801;51.050;6.246;2022-09-01T07:38:04;10.83;;;3.03;;
3573;SDS011;1801;51.050;6.246;2022-09-01T07:40:30;12.30;;;3.30;;
3573;SDS011;1801;51.050;6.246;2022-09-01T07:42:55;9.00;;;2.77;;
3573;SDS011;1801;51.050;6.246;2022-09-01T07:45:21;6.90;;;3.17;;
3573;SDS011;1801;51.050;6.246;2022-09-01T07:47:47;6.93;;;3.20;;
3573;SDS011;1801;51.050;6.246;2022-09-01T07:50:13;4.77;;;3.03;;
3573;SDS011;1801;51.050;6.246;2022-09-01T07:52:40;6.27;;;3.70;;
3573;SDS011;1801;51.050;6.246;2022-09-01T07:57:35;9.63;;;3.90;;
3573;SDS011;1801;51.050;6.246;2022-09-01T08:00:00;11.63;;;3.83;;
3573;SDS011;1801;51.050;6.246;2022-09-01T08:02:25;5.00;;;3.30;;
3573;SDS011;1801;51.050;6.246;2022-09-01T08:04:51;27.13;;;5.00;;
3573;SDS011;1801;51.050;6.246;2022-09-01T08:07:17;11.20;;;3.20;;
3573;SDS011;1801;51.050;6.246;2022-09-01T08:09:42;13.90;;;4.17;;
3573;SDS011;1801;51.050;6.246;2022-09-01T08:12:07;8.90;;;3.23;;
3573;SDS011;1801;51.050;6.246;2022-09-01T08:14:33;10.43;;;3.47;;
3573;SDS011;1801;51.050;6.246;2022-09-01T08:16:58;4.00;;;2.77;;
3573;SDS011;1801;51.050;6.246;2022-09-01T08:19:24;6.40;;;2.73;;
3573;SDS011;1801;51.050;6.246;2022-09-01T08:21:49;9.50;;;2.60;;
3573;SDS011;1801;51.050;6.246;2022-09-01T08:24:14;3.53;;;2.77;;
3573;SDS011;1801;51.050;6.246;2022-09-01T08:26:39;6.87;;;3.30;;
3573;SDS011;1801;51.050;6.246;2022-09-01T08:29:05;6.57;;;3.43;;
3573;SDS011;1801;51.050;6.246;2022-09-01T08:31:30;6.13;;;2.97;;
3573;SDS011;1801;51.050;6.246;2022-09-01T08:33:56;4.20;;;2.73;;
3573;SDS011;1801;51.050;6.246;2022-09-01T08:36:22;6.63;;;3.20;;
3573;SDS011;1801;51.050;6.246;2022-09-01T08:38:48;3.10;;;2.83;;
3573;SDS011;1801;51.050;6.246;2022-09-01T08:41:18;5.83;;;3.40;;
3573;SDS011;1801;51.050;6.246;2022-09-01T08:46:22;5.80;;;3.00;;
3573;SDS011;1801;51.050;6.246;2022-09-01T08:48:52;5.67;;;2.67;;
3573;SDS011;1801;51.050;6.246;2022-09-01T08:51:26;7.33;;;3.00;;
3573;SDS011;1801;51.050;6.246;2022-09-01T08:56:26;4.20;;;2.80;;
3573;SDS011;1801;51.050;6.246;2022-09-01T08:58:51;3.60;;;3.03;;
3573;SDS011;1801;51.050;6.246;2022-09-01T09:01:20;5.77;;;3.47;;
3573;SDS011;1801;51.050;6.246;2022-09-01T09:04:03;9.27;;;4.13;;
3573;SDS011;1801;51.050;6.246;2022-09-01T09:06:41;6.50;;;3.60;;
3573;SDS011;1801;51.050;6.246;2022-09-01T09:09:10;4.80;;;3.33;;
3573;SDS011;1801;51.050;6.246;2022-09-01T09:16:58;8.13;;;3.53;;
3573;SDS011;1801;51.050;6.246;2022-09-01T09:21:49;3.10;;;2.60;;
3573;SDS011;1801;51.050;6.246;2022-09-01T09:24:28;3.13;;;2.80;;
3573;SDS011;1801;51.050;6.246;2022-09-01T09:27:11;8.50;;;3.13;;
3573;SDS011;1801;51.050;6.246;2022-09-01T09:29:40;6.10;;;3.17;;
3573;SDS011;1801;51.050;6.246;2022-09-01T09:32:07;3.43;;;2.30;;
3573;SDS011;1801;51.050;6.246;2022-09-01T09:34:40;2.80;;;2.20;;
3573;SDS011;1801;51.050;6.246;2022-09-01T09:39:43;5.20;;;2.27;;
3573;SDS011;1801;51.050;6.246;2022-09-01T09:42:10;7.00;;;2.90;;
3573;SDS011;1801;51.050;6.246;2022-09-01T09:44:48;3.93;;;2.20;;
3573;SDS011;1801;51.050;6.246;2022-09-01T09:47:32;7.80;;;2.20;;
3573;SDS011;1801;51.050;6.246;2022-09-01T09:50:15;3.97;;;2.10;;
3573;SDS011;1801;51.050;6.246;2022-09-01T09:52:41;3.10;;;2.20;;
3573;SDS011;1801;51.050;6.246;2022-09-01T09:55:20;10.30;;;2.40;;
3573;SDS011;1801;51.050;6.246;2022-09-01T09:57:45;7.57;;;2.70;;
3573;SDS011;1801;51.050;6.246;2022-09-01T10:02:41;2.83;;;2.00;;
3573;SDS011;1801;51.050;6.246;2022-09-01T10:05:34;4.90;;;2.17;;
3573;SDS011;1801;51.050;6.246;2022-09-01T10:08:00;4.80;;;2.10;;
3573;SDS011;1801;51.050;6.246;2022-09-01T10:12:53;4.90;;;2.10;;
3573;SDS011;1801;51.050;6.246;2022-09-01T10:15:24;3.30;;;2.17;;
3573;SDS011;1801;51.050;6.246;2022-09-01T10:17:49;3.23;;;1.87;;
3573;SDS011;1801;51.050;6.246;2022-09-01T10:20:20;6.30;;;2.30;;
3573;SDS011;1801;51.050;6.246;2022-09-01T10:22:46;4.80;;;2.07;;
3573;SDS011;1801;51.050;6.246;2022-09-01T10:25:14;5.23;;;2.10;;
3573;SDS011;1801;51.050;6.246;2022-09-01T10:27:41;6.23;;;2.50;;
3573;SDS011;1801;51.050;6.246;2022-09-01T10:30:11;4.10;;;2.37;;
3573;SDS011;1801;51.050;6.246;2022-09-01T10:35:13;3.50;;;2.50;;
3573;SDS011;1801;51.050;6.246;2022-09-01T10:37:40;3.10;;;2.03;;
3573;SDS011;1801;51.050;6.246;2022-09-01T10:42:41;3.77;;;2.20;;
3573;SDS011;1801;51.050;6.246;2022-09-01T10:50:46;4.77;;;2.33;;
3573;SDS011;1801;51.050;6.246;2022-09-01T10:53:54;7.53;;;2.27;;
3573;SDS011;1801;51.050;6.246;2022-09-01T11:04:04;2.30;;;2.10;;
3573;SDS011;1801;51.050;6.246;2022-09-01T11:06:31;3.63;;;1.80;;
3573;SDS011;1801;51.050;6.246;2022-09-01T11:08:57;4.60;;;1.87;;
3573;SDS011;1801;51.050;6.246;2022-09-01T11:13:56;5.73;;;1.80;;
3573;SDS011;1801;51.050;6.246;2022-09-01T11:16:32;3.50;;;1.50;;
3573;SDS011;1801;51.050;6.246;2022-09-01T11:21:42;4.80;;;1.70;;
3573;SDS011;1801;51.050;6.246;2022-09-01T11:24:51;3.00;;;1.60;;
3573;SDS011;1801;51.050;6.246;2022-09-01T11:26:56;8.00;;;2.10;;
3573;SDS011;1801;51.050;6.246;2022-09-01T11:32:06;5.07;;;2.37;;
3573;SDS011;1801;51.050;6.246;2022-09-01T11:34:31;5.63;;;1.40;;
3573;SDS011;1801;51.050;6.246;2022-09-01T11:37:09;8.03;;;1.80;;
3573;SDS011;1801;51.050;6.246;2022-09-01T11:39:40;3.97;;;1.60;;
3573;SDS011;1801;51.050;6.246;2022-09-01T11:44:54;3.90;;;2.10;;
3573;SDS011;1801;51.050;6.246;2022-09-01T11:47:31;2.57;;;1.40;;
3573;SDS011;1801;51.050;6.246;2022-09-01T11:50:01;8.43;;;1.60;;
3573;SDS011;1801;51.050;6.246;2022-09-01T11:52:31;2.90;;;1.40;;
3573;SDS011;1801;51.050;6.246;2022-09-01T11:54:58;2.10;;;1.83;;
3573;SDS011;1801;51.050;6.246;2022-09-01T11:57:25;4.27;;;1.50;;
3573;SDS011;1801;51.050;6.246;2022-09-01T11:59:52;3.23;;;1.80;;
3573;SDS011;1801;51.050;6.246;2022-09-01T12:02:25;6.13;;;1.80;;
3573;SDS011;1801;51.050;6.246;2022-09-01T12:04:52;3.63;;;1.70;;
3573;SDS011;1801;51.050;6.246;2022-09-01T12:10:03;3.83;;;1.93;;
3573;SDS011;1801;51.050;6.246;2022-09-01T12:12:37;3.43;;;2.17;;
3573;SDS011;1801;51.050;6.246;2022-09-01T12:15:05;2.63;;;1.87;;
3573;SDS011;1801;51.050;6.246;2022-09-01T12:17:32;5.97;;;2.00;;
3573;SDS011;1801;51.050;6.246;2022-09-01T12:22:42;2.20;;;1.87;;
3573;SDS011;1801;51.050;6.246;2022-09-01T12:25:13;3.17;;;1.90;;
3573;SDS011;1801;51.050;6.246;2022-09-01T12:27:42;2.90;;;2.00;;
3573;SDS011;1801;51.050;6.246;2022-09-01T12:30:07;6.43;;;2.43;;
3573;SDS011;1801;51.050;6.246;2022-09-01T12:32:33;6.27;;;2.73;;
3573;SDS011;1801;51.050;6.246;2022-09-01T12:35:00;5.63;;;2.17;;
3573;SDS011;1801;51.050;6.246;2022-09-01T12:37:26;3.33;;;2.20;;
3573;SDS011;1801;51.050;6.246;2022-09-01T12:39:55;3.73;;;2.13;;
3573;SDS011;1801;51.050;6.246;2022-09-01T12:42:31;3.20;;;2.00;;
3573;SDS011;1801;51.050;6.246;2022-09-01T12:45:01;3.23;;;2.13;;
3573;SDS011;1801;51.050;6.246;2022-09-01T12:50:31;2.30;;;1.60;;
3573;SDS011;1801;51.050;6.246;2022-09-01T12:55:19;3.30;;;2.10;;
3573;SDS011;1801;51.050;6.246;2022-09-01T12:57:47;3.43;;;2.43;;
3573;SDS011;1801;51.050;6.246;2022-09-01T13:02:48;3.53;;;2.17;;
3573;SDS011;1801;51.050;6.246;2022-09-01T13:07:42;7.37;;;2.50;;
3573;SDS011;1801;51.050;6.246;2022-09-01T13:10:08;4.23;;;2.67;;
3573;SDS011;1801;51.050;6.246;2022-09-01T13:12:33;5.90;;;2.40;;
3573;SDS011;1801;51.050;6.246;2022-09-01T13:14:58;9.00;;;2.90;;
3573;SDS011;1801;51.050;6.246;2022-09-01T13:17:23;3.80;;;2.20;;
3573;SDS011;1801;51.050;6.246;2022-09-01T13:19:48;2.53;;;2.30;;
3573;SDS011;1801;51.050;6.246;2022-09-01T13:22:14;2.07;;;1.93;;
3573;SDS011;1801;51.050;6.246;2022-09-01T13:24:39;3.40;;;2.43;;
3573;SDS011;1801;51.050;6.246;2022-09-01T13:27:04;2.60;;;1.80;;
3573;SDS011;1801;51.050;6.246;2022-09-01T13:29:29;4.43;;;2.30;;
3573;SDS011;1801;51.050;6.246;2022-09-01T13:31:55;3.10;;;2.37;;
3573;SDS011;1801;51.050;6.246;2022-09-01T13:34:21;8.10;;;2.60;;
3573;SDS011;1801;51.050;6.246;2022-09-01T13:36:46;3.03;;;2.43;;
3573;SDS011;1801;51.050;6.246;2022-09-01T13:39:11;2.30;;;2.10;;
3573;SDS011;1801;51.050;6.246;2022-09-01T13:41:36;4.10;;;3.03;;
3573;SDS011;1801;51.050;6.246;2022-09-01T13:44:02;3.30;;;2.30;;
3573;SDS011;1801;51.050;6.246;2022-09-01T13:46:27;2.63;;;2.00;;
3573;SDS011;1801;51.050;6.246;2022-09-01T13:48:52;2.60;;;2.30;;
3573;SDS011;1801;51.050;6.246;2022-09-01T13:51:24;4.73;;;2.27;;
3573;SDS011;1801;51.050;6.246;2022-09-01T13:53:50;2.77;;;2.50;;
3573;SDS011;1801;51.050;6.246;2022-09-01T13:56:15;6.50;;;2.20;;
3573;SDS011;1801;51.050;6.246;2022-09-01T13:58:40;2.40;;;2.20;;
3573;SDS011;1801;51.050;6.246;2022-09-01T14:01:06;5.40;;;2.57;;
3573;SDS011;1801;51.050;6.246;2022-09-01T14:03:31;2.93;;;2.10;;
3573;SDS011;1801;51.050;6.246;2022-09-01T14:05:56;4.73;;;2.07;;
3573;SDS011;1801;51.050;6.246;2022-09-01T14:08:21;4.53;;;2.50;;
3573;SDS011;1801;51.050;6.246;2022-09-01T14:10:48;2.70;;;2.37;;
3573;SDS011;1801;51.050;6.246;2022-09-01T14:13:14;3.07;;;2.77;;
3573;SDS011;1801;51.050;6.246;2022-09-01T14:15:40;6.40;;;2.60;;
3573;SDS011;1801;51.050;6.246;2022-09-01T14:18:05;3.37;;;2.60;;
3573;SDS011;1801;51.050;6.246;2022-09-01T14:20:32;3.73;;;2.63;;
3573;SDS011;1801;51.050;6.246;2022-09-01T14:23:00;3.53;;;2.73;;
3573;SDS011;1801;51.050;6.246;2022-09-01T14:25:26;5.30;;;2.73;;
3573;SDS011;1801;51.050;6.246;2022-09-01T14:27:51;3.17;;;2.80;;
3573;SDS011;1801;51.050;6.246;2022-09-01T14:30:21;4.80;;;2.80;;
3573;SDS011;1801;51.050;6.246;2022-09-01T14:32:46;4.07;;;2.47;;
3573;SDS011;1801;51.050;6.246;2022-09-01T14:35:13;4.00;;;2.70;;
3573;SDS011;1801;51.050;6.246;2022-09-01T14:37:38;3.03;;;2.37;;
3573;SDS011;1801;51.050;6.246;2022-09-01T14:40:04;3.60;;;2.53;;
3573;SDS011;1801;51.050;6.246;2022-09-01T14:42:30;5.73;;;2.60;;
3573;SDS011;1801;51.050;6.246;2022-09-01T14:44:55;5.10;;;2.63;;
3573;SDS011;1801;51.050;6.246;2022-09-01T14:47:21;3.27;;;2.40;;
3573;SDS011;1801;51.050;6.246;2022-09-01T14:49:49;5.97;;;3.27;;
3573;SDS011;1801;51.050;6.246;2022-09-01T14:52:14;4.23;;;2.90;;
3573;SDS011;1801;51.050;6.246;2022-09-01T14:54:40;3.20;;;3.00;;
3573;SDS011;1801;51.050;6.246;2022-09-01T14:57:06;4.40;;;2.93;;
3573;SDS011;1801;51.050;6.246;2022-09-01T14:59:32;5.63;;;2.53;;
3573;SDS011;1801;51.050;6.246;2022-09-01T15:01:57;4.07;;;3.00;;
3573;SDS011;1801;51.050;6.246;2022-09-01T15:04:22;3.60;;;3.10;;
3573;SDS011;1801;51.050;6.246;2022-09-01T15:06:47;8.27;;;2.90;;
3573;SDS011;1801;51.050;6.246;2022-09-01T15:09:13;6.40;;;4.37;;
3573;SDS011;1801;51.050;6.246;2022-09-01T15:11:39;5.60;;;2.70;;
3573;SDS011;1801;51.050;6.246;2022-09-01T15:14:04;3.83;;;2.97;;
3573;SDS011;1801;51.050;6.246;2022-09-01T15:16:29;3.60;;;3.30;;
3573;SDS011;1801;51.050;6.246;2022-09-01T15:18:59;6.67;;;6.07;;
3573;SDS011;1801;51.050;6.246;2022-09-01T15:21:25;3.47;;;2.80;;
3573;SDS011;1801;51.050;6.246;2022-09-01T15:23:52;4.33;;;3.87;;
3573;SDS011;1801;51.050;6.246;2022-09-01T15:26:18;10.10;;;7.73;;
3573;SDS011;1801;51.050;6.246;2022-09-01T15:28:44;10.80;;;8.00;;
3573;SDS011;1801;51.050;6.246;2022-09-01T15:31:09;11.97;;;7.10;;
3573;SDS011;1801;51.050;6.246;2022-09-01T15:33:36;17.27;;;11.23;;
3573;SDS011;1801;51.050;6.246;2022-09-01T15:36:02;9.30;;;6.00;;
3573;SDS011;1801;51.050;6.246;2022-09-01T15:38:27;6.33;;;5.73;;
3573;SDS011;1801;51.050;6.246;2022-09-01T15:40:52;5.30;;;4.57;;
3573;SDS011;1801;51.050;6.246;2022-09-01T15:43:19;5.27;;;4.80;;
3573;SDS011;1801;51.050;6.246;2022-09-01T15:45:45;6.37;;;5.40;;
3573;SDS011;1801;51.050;6.246;2022-09-01T15:48:10;10.40;;;7.73;;
3573;SDS011;1801;51.050;6.246;2022-09-01T15:50:35;7.77;;;4.03;;
3573;SDS011;1801;51.050;6.246;2022-09-01T15:53:01;5.83;;;3.50;;
3573;SDS011;1801;51.050;6.246;2022-09-01T15:55:36;3.40;;;3.10;;
3573;SDS011;1801;51.050;6.246;2022-09-01T15:58:01;3.93;;;3.53;;
3573;SDS011;1801;51.050;6.246;2022-09-01T16:00:27;4.17;;;3.70;;
3573;SDS011;1801;51.050;6.246;2022-09-01T16:02:53;3.40;;;3.07;;
3573;SDS011;1801;51.050;6.246;2022-09-01T16:05:20;11.83;;;4.63;;
3573;SDS011;1801;51.050;6.246;2022-09-01T16:07:45;3.50;;;3.20;;
3573;SDS011;1801;51.050;6.246;2022-09-01T16:10:11;5.17;;;3.40;;
3573;SDS011;1801;51.050;6.246;2022-09-01T16:12:40;3.30;;;3.00;;
3573;SDS011;1801;51.050;6.246;2022-09-01T16:15:08;6.60;;;3.87;;
3573;SDS011;1801;51.050;6.246;2022-09-01T16:20:03;3.70;;;3.40;;
3573;SDS011;1801;51.050;6.246;2022-09-01T16:22:33;5.93;;;3.50;;
3573;SDS011;1801;51.050;6.246;2022-09-01T16:25:00;7.07;;;3.50;;
3573;SDS011;1801;51.050;6.246;2022-09-01T16:27:31;6.03;;;3.27;;
3573;SDS011;1801;51.050;6.246;2022-09-01T16:29:58;5.70;;;3.40;;